sensor_id;sensor_type;location;lat;lon;timestamp;P1;durP1;ratioP1;P2;durP2;ratioP2
73104;SDS011;61296;50.526;30.792;2023-07-30T00:00:00;8.23;;;6.43;;
73104;SDS011;61296;50.526;30.792;2023-07-30T00:15:21;8.07;;;6.30;;
73104;SDS011;61296;50.526;30.792;2023-07-30T00:30:41;9.88;;;6.40;;
73104;SDS011;61296;50.526;30.792;2023-07-30T00:46:03;8.50;;;6.90;;
73104;SDS011;61296;50.526;30.792;2023-07-30T01:01:23;9.45;;;6.80;;
73104;SDS011;61296;50.526;30.792;2023-07-30T01:16:43;8.55;;;6.32;;
73104;SDS011;61296;50.526;30.792;2023-07-30T01:32:04;7.75;;;6.55;;
73104;SDS011;61296;50.526;30.792;2023-07-30T01:47:26;7.38;;;6.60;;
73104;SDS011;61296;50.526;30.792;2023-07-30T02:02:45;8.40;;;6.55;;
73104;SDS011;61296;50.526;30.792;2023-07-30T02:18:04;7.40;;;6.28;;
73104;SDS011;61296;50.526;30.792;2023-07-30T02:33:24;9.18;;;6.50;;
73104;SDS011;61296;50.526;30.792;2023-07-30T02:48:44;7.72;;;6.50;;
73104;SDS011;61296;50.526;30.792;2023-07-30T03:04:03;9.77;;;6.97;;
73104;SDS011;61296;50.526;30.792;2023-07-30T03:19:24;8.43;;;6.53;;
73104;SDS011;61296;50.526;30.792;2023-07-30T03:34:43;7.45;;;5.93;;
73104;SDS011;61296;50.526;30.792;2023-07-30T03:50:02;6.32;;;5.68;;
73104;SDS011;61296;50.526;30.792;2023-07-30T04:05:22;5.97;;;5.35;;
73104;SDS011;61296;50.526;30.792;2023-07-30T04:20:41;13.63;;;7.30;;
73104;SDS011;61296;50.526;30.792;2023-07-30T04:36:01;9.32;;;5.47;;
73104;SDS011;61296;50.526;30.792;2023-07-30T04:51:21;7.18;;;4.15;;
73104;SDS011;61296;50.526;30.792;2023-07-30T05:06:41;5.05;;;2.97;;
73104;SDS011;61296;50.526;30.792;2023-07-30T05:22:00;11.52;;;4.60;;
73104;SDS011;61296;50.526;30.792;2023-07-30T05:37:20;4.97;;;3.95;;
73104;SDS011;61296;50.526;30.792;2023-07-30T05:52:40;4.68;;;3.95;;
73104;SDS011;61296;50.526;30.792;2023-07-30T06:07:59;8.00;;;4.75;;
73104;SDS011;61296;50.526;30.792;2023-07-30T06:23:21;5.20;;;4.70;;
73104;SDS011;61296;50.526;30.792;2023-07-30T06:38:42;4.93;;;4.20;;
73104;SDS011;61296;50.526;30.792;2023-07-30T06:54:01;5.47;;;4.40;;
73104;SDS011;61296;50.526;30.792;2023-07-30T07:09:21;4.30;;;3.70;;
73104;SDS011;61296;50.526;30.792;2023-07-30T07:24:42;4.93;;;4.43;;
73104;SDS011;61296;50.526;30.792;2023-07-30T07:40:03;3.03;;;2.80;;
73104;SDS011;61296;50.526;30.792;2023-07-30T07:55:23;5.03;;;2.65;;
73104;SDS011;61296;50.526;30.792;2023-07-30T08:10:42;3.42;;;2.50;;
73104;SDS011;61296;50.526;30.792;2023-07-30T08:26:04;3.03;;;2.63;;
73104;SDS011;61296;50.526;30.792;2023-07-30T08:41:24;6.60;;;2.58;;
73104;SDS011;61296;50.526;30.792;2023-07-30T08:56:43;3.88;;;2.53;;
73104;SDS011;61296;50.526;30.792;2023-07-30T09:12:04;16.02;;;3.90;;
73104;SDS011;61296;50.526;30.792;2023-07-30T09:27:31;7.38;;;3.67;;
73104;SDS011;61296;50.526;30.792;2023-07-30T09:42:51;7.82;;;3.55;;
73104;SDS011;61296;50.526;30.792;2023-07-30T09:58:10;6.68;;;3.80;;
73104;SDS011;61296;50.526;30.792;2023-07-30T10:13:32;7.63;;;3.63;;
73104;SDS011;61296;50.526;30.792;2023-07-30T10:29:05;6.65;;;3.67;;
73104;SDS011;61296;50.526;30.792;2023-07-30T10:44:33;5.07;;;3.60;;
73104;SDS011;61296;50.526;30.792;2023-07-30T10:59:53;10.60;;;3.55;;
73104;SDS011;61296;50.526;30.792;2023-07-30T11:15:16;4.15;;;3.28;;
73104;SDS011;61296;50.526;30.792;2023-07-30T11:30:38;5.10;;;3.83;;
73104;SDS011;61296;50.526;30.792;2023-07-30T12:01:30;4.10;;;3.80;;
73104;SDS011;61296;50.526;30.792;2023-07-30T12:16:53;4.43;;;3.22;;
73104;SDS011;61296;50.526;30.792;2023-07-30T12:32:13;4.78;;;3.35;;
73104;SDS011;61296;50.526;30.792;2023-07-30T12:47:32;13.05;;;4.38;;
73104;SDS011;61296;50.526;30.792;2023-07-30T13:02:56;6.18;;;4.00;;
73104;SDS011;61296;50.526;30.792;2023-07-30T13:18:16;4.25;;;3.85;;
73104;SDS011;61296;50.526;30.792;2023-07-30T13:33:35;4.38;;;3.65;;
73104;SDS011;61296;50.526;30.792;2023-07-30T13:48:55;4.75;;;3.60;;
73104;SDS011;61296;50.526;30.792;2023-07-30T14:04:15;5.20;;;3.88;;
73104;SDS011;61296;50.526;30.792;2023-07-30T14:19:34;8.55;;;4.30;;
73104;SDS011;61296;50.526;30.792;2023-07-30T14:34:54;11.02;;;4.28;;
73104;SDS011;61296;50.526;30.792;2023-07-30T14:50:14;6.53;;;3.67;;
73104;SDS011;61296;50.526;30.792;2023-07-30T15:05:34;6.10;;;4.10;;
73104;SDS011;61296;50.526;30.792;2023-07-30T15:20:54;4.97;;;3.60;;
73104;SDS011;61296;50.526;30.792;2023-07-30T15:36:14;4.55;;;3.95;;
73104;SDS011;61296;50.526;30.792;2023-07-30T15:51:33;5.68;;;4.63;;
73104;SDS011;61296;50.526;30.792;2023-07-30T16:06:56;4.80;;;3.95;;
73104;SDS011;61296;50.526;30.792;2023-07-30T16:22:16;8.87;;;4.13;;
73104;SDS011;61296;50.526;30.792;2023-07-30T16:37:35;4.40;;;3.70;;
73104;SDS011;61296;50.526;30.792;2023-07-30T16:52:55;4.25;;;3.85;;
73104;SDS011;61296;50.526;30.792;2023-07-30T17:08:14;4.30;;;3.90;;
73104;SDS011;61296;50.526;30.792;2023-07-30T17:23:34;5.38;;;4.22;;
73104;SDS011;61296;50.526;30.792;2023-07-30T17:38:53;4.38;;;3.97;;
73104;SDS011;61296;50.526;30.792;2023-07-30T17:54:13;8.95;;;4.47;;
73104;SDS011;61296;50.526;30.792;2023-07-30T18:09:32;6.22;;;5.07;;
73104;SDS011;61296;50.526;30.792;2023-07-30T18:24:52;5.80;;;5.20;;
73104;SDS011;61296;50.526;30.792;2023-07-30T18:40:11;7.88;;;5.93;;
73104;SDS011;61296;50.526;30.792;2023-07-30T18:55:31;6.20;;;5.45;;
73104;SDS011;61296;50.526;30.792;2023-07-30T19:10:51;10.93;;;9.05;;
73104;SDS011;61296;50.526;30.792;2023-07-30T19:26:10;9.40;;;7.90;;
73104;SDS011;61296;50.526;30.792;2023-07-30T19:41:30;7.68;;;6.97;;
73104;SDS011;61296;50.526;30.792;2023-07-30T19:56:50;9.30;;;7.57;;
73104;SDS011;61296;50.526;30.792;2023-07-30T20:12:09;8.35;;;7.45;;
73104;SDS011;61296;50.526;30.792;2023-07-30T20:27:30;8.23;;;6.63;;
73104;SDS011;61296;50.526;30.792;2023-07-30T20:42:49;7.57;;;6.20;;
73104;SDS011;61296;50.526;30.792;2023-07-30T20:58:08;10.57;;;8.55;;
73104;SDS011;61296;50.526;30.792;2023-07-30T21:13:28;8.27;;;7.00;;
73104;SDS011;61296;50.526;30.792;2023-07-30T21:28:47;9.13;;;7.05;;
73104;SDS011;61296;50.526;30.792;2023-07-30T21:44:08;8.02;;;6.20;;
73104;SDS011;61296;50.526;30.792;2023-07-30T21:59:28;8.45;;;6.80;;
73104;SDS011;61296;50.526;30.792;2023-07-30T22:14:48;7.90;;;7.03;;
73104;SDS011;61296;50.526;30.792;2023-07-30T22:30:08;9.07;;;8.07;;
73104;SDS011;61296;50.526;30.792;2023-07-30T22:45:28;7.93;;;7.13;;
73104;SDS011;61296;50.526;30.792;2023-07-30T23:00:47;10.63;;;9.00;;
73104;SDS011;61296;50.526;30.792;2023-07-30T23:16:07;7.35;;;6.57;;
73104;SDS011;61296;50.526;30.792;2023-07-30T23:31:27;6.18;;;5.30;;
73104;SDS011;61296;50.526;30.792;2023-07-30T23:46:47;5.80;;;5.05;;
